Wugang, China
Current Conditions -  °F | °C
As of 5:00 AM on Thursday 27 Nov 2014 (Local Time) from ZGKL Reporting Station
Haze Haze  
Wind Chill: 57°   Ceiling: Unl
Heat Index: 57°   Visibility: 1.8mi
Dew Point: 55°   Wind: 2mph
Humidity: 94%   Direction: NA
Pressure: 29.91"   Gusts: NA
Location:  26.73°N, 110.63°E
Report Text: ZGKL 262100Z VRB01MPS 3000 BR SCT030 14/13 Q1013 NOSIG
Loading
Personal Weather Stations






























Interactive Weather Map New forecast layout! Learn more

10-Day Weather Forecast

Advertisements
Track Severe Weather on mobile